Oden — SMLQ — position and weather

sailwx.info

Track history (hours):
 
Tides and Currents Weather Stations Pressure Air Temp Water Temp Dewpoint Dewpoint Depression Visibility Wind Speed Wind Dir Waves Ship Positions

Oceanographic research ship Oden (Sweden)

Detailed information on ship capabilities available from ARCUS's ALIAS (Arctic Logistics Information and Support) project.

Last reported at 2018-Jan-18 16:00 UTC. Time now 2018-Jan-18 17:49 UTC.
Position N 65°36' E 022°12'.

Length 108 m; draft 8.6 m.

Type: Other ship. MMSI: 265182000.

Wind from 080 at 12 knots

Barometer 1003.7 mb
Air temperature -6.2 ° C

Date/timePositionNaut miles runAvg speedWind from/ knotsBaromVisibWave heightAir tempDewpointWater temp
2018-Jan-18 16:00N 65°36' E 022°12'0 0.0 080 / 121003.7 -6.2
2018-Jan-18 15:00N 65°36' E 022°12'0 0.0 090 / 61003.9 -6.0
2018-Jan-18 14:00N 65°36' E 022°12'0 0.0 010 / 10999.9 -7.4
2018-Jan-18 11:00N 65°36' E 022°12'0 0.0 010 / 81000.5 -9.9
2018-Jan-18 10:00N 65°36' E 022°12'0 0.0 360 / 81000.7 -10.8
2018-Jan-18 09:00N 65°36' E 022°12'0 0.0 1001.0 -11.5
2018-Jan-18 07:00N 65°36' E 022°12'0 0.0 040 / 61001.0 -12.7
2018-Jan-18 06:00N 65°36' E 022°12'0 0.0 020 / 101001.4 -12.4
2018-Jan-18 05:00N 65°36' E 022°12'0 0.0 040 / 81001.4 -11.9
2018-Jan-18 04:00N 65°36' E 022°12'0 0.0 040 / 81001.8 -11.1
2018-Jan-18 02:00N 65°36' E 022°12'0 0.0 050 / 61002.0 -9.5
2018-Jan-18 01:00N 65°36' E 022°12'0 0.0 060 / 81001.9 -7.2
2018-Jan-17 22:00N 65°36' E 022°12'0 0.0 130 / 81001.7 -7.1
2018-Jan-17 21:00N 65°36' E 022°12'0 0.0 150 / 61005.7 -7.0
2018-Jan-17 20:00N 65°36' E 022°12'0 0.0 110 / 101001.4 -7.2
2018-Jan-17 16:00N 65°36' E 022°12'0 0.0 150 / 211004.7 -6.2
2018-Jan-17 15:00N 65°36' E 022°12'0 0.0 150 / 121004.6 -6.1
2018-Jan-17 14:00N 65°36' E 022°12'0 0.0 150 / 121004.7 -6.2
2018-Jan-17 11:00N 65°36' E 022°12'0 0.0 140 / 161001.3 -7.1
2018-Jan-17 10:00N 65°36' E 022°12'0 0.0 160 / 171005.1 -6.9
2018-Jan-17 09:00N 65°36' E 022°12'0 0.0 150 / 251004.9 -6.5
2018-Jan-17 07:00N 65°36' E 022°12'0 0.0 140 / 101004.7 -6.2
2018-Jan-17 06:00N 65°36' E 022°12'0 0.0 150 / 121004.3 -6.0
2018-Jan-17 03:00N 65°36' E 022°12'0 0.0 140 / 121003.7 -5.4
2018-Jan-17 02:00N 65°36' E 022°12'0 0.0 140 / 171003.6 -5.3
2018-Jan-17 01:00N 65°36' E 022°12'0 0.0 140 / 161003.4 -5.1
2018-Jan-16 22:00N 65°36' E 022°12'0 0.0 160 / 171002.8 -4.9
2018-Jan-16 21:00N 65°36' E 022°12'0 0.0 170 / 161002.5 -5.0
2018-Jan-16 20:00N 65°36' E 022°12'0 0.0 150 / 211002.2 -4.9
2018-Jan-16 06:00N 65°36' E 022°12'0 0.0 150 / 351005.3 -5.9
2018-Jan-16 03:00N 65°36' E 022°12'0 0.0 160 / 211007.5 -5.3
2018-Jan-15 21:00N 65°36' E 022°12'0 0.0 180 / 231010.7 -3.1 0.8
2018-Jan-15 15:00N 65°36' E 022°12'0 0.0 160 / 311014.9 -2.5 0.8
2018-Jan-15 12:00N 65°36' E 022°12'0 0.0 160 / 251016.8 -2.2 0.8
2018-Jan-15 09:00N 65°36' E 022°12'0 0.0 180 / 231018.1 -1.6 0.8
2018-Jan-15 06:00N 65°36' E 022°12'0 0.0 190 / 251018.7 -0.6 0.8
2018-Jan-15 03:00N 65°36' E 022°12'0 0.0 190 / 211020.2 -0.3 0.7
2018-Jan-15 00:00N 65°36' E 022°12'0 0.0 190 / 191022.5 -0.9 0.7
2018-Jan-14 21:00N 65°36' E 022°12'0 0.0 180 / 211024.4 -1.4 0.7
2018-Jan-14 18:00N 65°36' E 022°12'0 0.0 180 / 161026.0 -1.3 0.8
2018-Jan-14 15:00N 65°36' E 022°12'0 0.0 190 / 171028.3 -3.0 0.8
2018-Jan-14 12:00N 65°36' E 022°12'0 0.0 320 / 21026.9 -7.4 0.8
2018-Jan-14 09:00N 65°36' E 022°12'0 0.0 230 / 141031.6 -5.5 0.7
2018-Jan-14 07:00N 65°36' E 022°12'0 0.0 200 / 81032.1 -6.0 0.7
2018-Jan-14 04:00N 65°36' E 022°12'0 0.0 230 / 61029.2 -7.1 0.7
2018-Jan-14 03:00N 65°36' E 022°12'0 0.0 190 / 61029.7 -7.2 0.7
2018-Jan-14 02:00N 65°36' E 022°12'0 0.0 190 / 81030.3 -7.3 0.7
2018-Jan-14 01:00N 65°36' E 022°12'0 0.0 200 / 101030.7 -7.4 0.7
2018-Jan-14 00:00N 65°36' E 022°12'0 0.0 190 / 171031.1 -8.4 0.7
2018-Jan-12 14:00N 65°36' E 022°12'0 0.0 320 / 21030.9 -14.2 0.6
2018-Jan-12 13:00N 65°36' E 022°12'0 0.0 160 1030.5 -15.2 0.6
2018-Jan-12 12:00N 65°36' E 022°12'0 0.0 310 / 21030.1 -16.7 0.6
2018-Jan-12 11:00N 65°36' E 022°12'0 0.0 010 1030.0 -18.0 0.6
2018-Jan-12 09:00N 65°36' E 022°12'0 0.0 320 / 21029.7 -18.8 0.6
2018-Jan-12 08:00N 65°36' E 022°12'0 0.0 300 / 21029.3 -19.0 0.6
2018-Jan-12 07:00N 65°36' E 022°12'0 0.0 300 / 21029.2 -19.7 0.6
2018-Jan-12 06:00N 65°36' E 022°12'0 0.0 280 / 21029.1 -19.5 0.6
2018-Jan-12 05:00N 65°36' E 022°12'0 0.0 330 / 21028.8 -19.5 0.6
2018-Jan-12 04:00N 65°36' E 022°12'0 0.0 230 / 21028.7 -20.2 0.6
2018-Jan-12 03:00N 65°36' E 022°12'0 0.0 310 / 41028.9 -18.5 0.7
2018-Jan-12 01:00N 65°36' E 022°12'0 0.0 310 / 21028.5 -18.5 0.6
2018-Jan-12 00:00N 65°36' E 022°12'0 0.0 190 / 21028.3 -17.6 0.7
2018-Jan-11 23:00N 65°36' E 022°12'0 0.0 310 / 21028.0 -15.8 0.7
2018-Jan-11 22:00N 65°36' E 022°12'0 0.0 310 / 21027.7 -15.3 0.7
2018-Jan-11 21:00N 65°36' E 022°12'0 0.0 300 / 21027.4 -14.9 0.7
2018-Jan-11 20:00N 65°36' E 022°12'0 0.0 200 / 21027.1 -13.8 0.8
2018-Jan-11 19:00N 65°36' E 022°12'0 0.0 190 / 41026.9 -12.2 0.8
2018-Jan-11 18:00N 65°36' E 022°12'0 0.0 160 / 41026.8 -10.9 0.8
2018-Jan-11 17:00N 65°36' E 022°12'0 0.0 200 / 61026.7 -10.1 0.8
2018-Jan-11 16:00N 65°36' E 022°12'0 0.0 240 / 21026.4 -9.4 0.7
2018-Jan-11 15:00N 65°36' E 022°12'0 0.0 130 / 41025.7 -9.4 0.6
2018-Jan-11 13:00N 65°36' E 022°12'0 0.0 270 1026.1 -10.4 0.7
2018-Jan-11 12:00N 65°36' E 022°12'0 0.0 310 / 21025.9 -10.3 0.7
2018-Jan-11 11:00N 65°36' E 022°12'0 0.0 310 / 21025.6 -11.3 0.6
2018-Jan-11 10:00N 65°36' E 022°12'0 0.0 300 / 41025.6 -11.6 0.6
2018-Jan-11 09:00N 65°36' E 022°12'0 0.0 310 / 41025.6 -11.4 0.6
2018-Jan-11 06:00N 65°36' E 022°12'0 0.0 310 / 21024.3 -12.0 0.7
2018-Jan-11 03:00N 65°36' E 022°12'0 0.0 330 / 41023.5 -11.8 0.7
2018-Jan-11 00:00N 65°36' E 022°12'0 0.0 1023.3 -11.9 0.7
2018-Jan-10 18:00N 65°36' E 022°12'0 0.0 320 / 21021.7 -10.6 0.9
2018-Jan-10 15:00N 65°36' E 022°12'0 0.0 340 / 21020.3 -8.9 0.8
2018-Jan-10 14:00N 65°36' E 022°12'0 0.0 330 / 81020.7 -9.0 0.7
2018-Jan-10 09:00N 65°36' E 022°12'0 0.0 330 / 41020.2 -7.6 0.7
2018-Jan-10 08:00N 65°36' E 022°12'0 0.0 330 / 61023.8 -6.8 0.7
2018-Jan-10 06:00N 65°36' E 022°12'0 0.0 340 / 61023.5 -5.7 0.8
2018-Jan-10 03:00N 65°36' E 022°12'0 0.0 320 / 41023.7 -5.7 0.8
2018-Jan-10 02:00N 65°36' E 022°12'0 0.0 320 / 41023.6 -4.2 0.8
2018-Jan-10 00:00N 65°36' E 022°12'0 0.0 260 / 41023.3 -4.1 0.8
2018-Jan-09 21:00N 65°36' E 022°12'0 0.0 010 / 41022.5 -4.4 0.9
2018-Jan-09 18:00N 65°36' E 022°12'0 0.0 340 / 81021.7 -3.6 0.9
2018-Jan-09 15:00N 65°36' E 022°12'0 0.0 330 / 41020.8 -4.2 0.9
2018-Jan-09 12:00N 65°36' E 022°12'0 0.0 140 / 21019.7 -3.5 0.8
2018-Jan-09 11:00N 65°36' E 022°12'0 0.0 200 / 21019.1 -2.9 0.8
2018-Jan-09 09:00N 65°36' E 022°12'0 0.0 190 / 41019.0 -4.2 0.8
2018-Jan-09 06:00N 65°36' E 022°12'0 0.0 110 / 61019.2 -3.9 0.9
2018-Jan-09 03:00N 65°36' E 022°12'0 0.0 170 / 41020.4 -4.5 1.0
2018-Jan-09 00:00N 65°36' E 022°12'0 0.0 310 / 41020.2 -4.8 1.1
2018-Jan-08 21:00N 65°36' E 022°12'0 0.0 290 / 41016.6 -8.1 1.2
2018-Jan-08 18:00N 65°36' E 022°12'   280 / 41015.4 -8.0 1.1
Track history (hours):
 
Tides and Currents Weather Stations Pressure Air Temp Water Temp Dewpoint Dewpoint Depression Visibility Wind Speed Wind Dir Waves Ship Positions

Oceanographic research ship Oden (Sweden)

Detailed information on ship capabilities available from ARCUS's ALIAS (Arctic Logistics Information and Support) project.

Last reported at 2018-Jan-18 16:00 UTC. Time now 2018-Jan-18 17:49 UTC.
Position N 65°36' E 022°12'.

Length 108 m; draft 8.6 m.

Type: Other ship. MMSI: 265182000.

Wind from 080 at 12 knots

Barometer 1003.7 mb
Air temperature -6.2 ° C

Date/timePositionNaut miles runAvg speedWind from/ knotsBaromVisibWave heightAir tempDewpointWater temp
2018-Jan-18 16:00N 65°36' E 022°12'0 0.0 080 / 121003.7 -6.2
2018-Jan-18 15:00N 65°36' E 022°12'0 0.0 090 / 61003.9 -6.0
2018-Jan-18 14:00N 65°36' E 022°12'0 0.0 010 / 10999.9 -7.4
2018-Jan-18 11:00N 65°36' E 022°12'0 0.0 010 / 81000.5 -9.9
2018-Jan-18 10:00N 65°36' E 022°12'0 0.0 360 / 81000.7 -10.8
2018-Jan-18 09:00N 65°36' E 022°12'0 0.0 1001.0 -11.5
2018-Jan-18 07:00N 65°36' E 022°12'0 0.0 040 / 61001.0 -12.7
2018-Jan-18 06:00N 65°36' E 022°12'0 0.0 020 / 101001.4 -12.4
2018-Jan-18 05:00N 65°36' E 022°12'0 0.0 040 / 81001.4 -11.9
2018-Jan-18 04:00N 65°36' E 022°12'0 0.0 040 / 81001.8 -11.1
2018-Jan-18 02:00N 65°36' E 022°12'0 0.0 050 / 61002.0 -9.5
2018-Jan-18 01:00N 65°36' E 022°12'0 0.0 060 / 81001.9 -7.2
2018-Jan-17 22:00N 65°36' E 022°12'0 0.0 130 / 81001.7 -7.1
2018-Jan-17 21:00N 65°36' E 022°12'0 0.0 150 / 61005.7 -7.0
2018-Jan-17 20:00N 65°36' E 022°12'0 0.0 110 / 101001.4 -7.2
2018-Jan-17 16:00N 65°36' E 022°12'0 0.0 150 / 211004.7 -6.2
2018-Jan-17 15:00N 65°36' E 022°12'0 0.0 150 / 121004.6 -6.1
2018-Jan-17 14:00N 65°36' E 022°12'0 0.0 150 / 121004.7 -6.2
2018-Jan-17 11:00N 65°36' E 022°12'0 0.0 140 / 161001.3 -7.1
2018-Jan-17 10:00N 65°36' E 022°12'0 0.0 160 / 171005.1 -6.9
2018-Jan-17 09:00N 65°36' E 022°12'0 0.0 150 / 251004.9 -6.5
2018-Jan-17 07:00N 65°36' E 022°12'0 0.0 140 / 101004.7 -6.2
2018-Jan-17 06:00N 65°36' E 022°12'0 0.0 150 / 121004.3 -6.0
2018-Jan-17 03:00N 65°36' E 022°12'0 0.0 140 / 121003.7 -5.4
2018-Jan-17 02:00N 65°36' E 022°12'0 0.0 140 / 171003.6 -5.3
2018-Jan-17 01:00N 65°36' E 022°12'0 0.0 140 / 161003.4 -5.1
2018-Jan-16 22:00N 65°36' E 022°12'0 0.0 160 / 171002.8 -4.9
2018-Jan-16 21:00N 65°36' E 022°12'0 0.0 170 / 161002.5 -5.0
2018-Jan-16 20:00N 65°36' E 022°12'0 0.0 150 / 211002.2 -4.9
2018-Jan-16 06:00N 65°36' E 022°12'0 0.0 150 / 351005.3 -5.9
2018-Jan-16 03:00N 65°36' E 022°12'0 0.0 160 / 211007.5 -5.3
2018-Jan-15 21:00N 65°36' E 022°12'0 0.0 180 / 231010.7 -3.1 0.8
2018-Jan-15 15:00N 65°36' E 022°12'0 0.0 160 / 311014.9 -2.5 0.8
2018-Jan-15 12:00N 65°36' E 022°12'0 0.0 160 / 251016.8 -2.2 0.8
2018-Jan-15 09:00N 65°36' E 022°12'0 0.0 180 / 231018.1 -1.6 0.8
2018-Jan-15 06:00N 65°36' E 022°12'0 0.0 190 / 251018.7 -0.6 0.8
2018-Jan-15 03:00N 65°36' E 022°12'0 0.0 190 / 211020.2 -0.3 0.7
2018-Jan-15 00:00N 65°36' E 022°12'0 0.0 190 / 191022.5 -0.9 0.7
2018-Jan-14 21:00N 65°36' E 022°12'0 0.0 180 / 211024.4 -1.4 0.7
2018-Jan-14 18:00N 65°36' E 022°12'0 0.0 180 / 161026.0 -1.3 0.8
2018-Jan-14 15:00N 65°36' E 022°12'0 0.0 190 / 171028.3 -3.0 0.8
2018-Jan-14 12:00N 65°36' E 022°12'0 0.0 320 / 21026.9 -7.4 0.8
2018-Jan-14 09:00N 65°36' E 022°12'0 0.0 230 / 141031.6 -5.5 0.7
2018-Jan-14 07:00N 65°36' E 022°12'0 0.0 200 / 81032.1 -6.0 0.7
2018-Jan-14 04:00N 65°36' E 022°12'0 0.0 230 / 61029.2 -7.1 0.7
2018-Jan-14 03:00N 65°36' E 022°12'0 0.0 190 / 61029.7 -7.2 0.7
2018-Jan-14 02:00N 65°36' E 022°12'0 0.0 190 / 81030.3 -7.3 0.7
2018-Jan-14 01:00N 65°36' E 022°12'0 0.0 200 / 101030.7 -7.4 0.7
2018-Jan-14 00:00N 65°36' E 022°12'0 0.0 190 / 171031.1 -8.4 0.7
2018-Jan-12 14:00N 65°36' E 022°12'0 0.0 320 / 21030.9 -14.2 0.6
2018-Jan-12 13:00N 65°36' E 022°12'0 0.0 160 1030.5 -15.2 0.6
2018-Jan-12 12:00N 65°36' E 022°12'0 0.0 310 / 21030.1 -16.7 0.6
2018-Jan-12 11:00N 65°36' E 022°12'0 0.0 010 1030.0 -18.0 0.6
2018-Jan-12 09:00N 65°36' E 022°12'0 0.0 320 / 21029.7 -18.8 0.6
2018-Jan-12 08:00N 65°36' E 022°12'0 0.0 300 / 21029.3 -19.0 0.6
2018-Jan-12 07:00N 65°36' E 022°12'0 0.0 300 / 21029.2 -19.7 0.6
2018-Jan-12 06:00N 65°36' E 022°12'0 0.0 280 / 21029.1 -19.5 0.6
2018-Jan-12 05:00N 65°36' E 022°12'0 0.0 330 / 21028.8 -19.5 0.6
2018-Jan-12 04:00N 65°36' E 022°12'0 0.0 230 / 21028.7 -20.2 0.6
2018-Jan-12 03:00N 65°36' E 022°12'0 0.0 310 / 41028.9 -18.5 0.7
2018-Jan-12 01:00N 65°36' E 022°12'0 0.0 310 / 21028.5 -18.5 0.6
2018-Jan-12 00:00N 65°36' E 022°12'0 0.0 190 / 21028.3 -17.6 0.7
2018-Jan-11 23:00N 65°36' E 022°12'0 0.0 310 / 21028.0 -15.8 0.7
2018-Jan-11 22:00N 65°36' E 022°12'0 0.0 310 / 21027.7 -15.3 0.7
2018-Jan-11 21:00N 65°36' E 022°12'0 0.0 300 / 21027.4 -14.9 0.7
2018-Jan-11 20:00N 65°36' E 022°12'0 0.0 200 / 21027.1 -13.8 0.8
2018-Jan-11 19:00N 65°36' E 022°12'0 0.0 190 / 41026.9 -12.2 0.8
2018-Jan-11 18:00N 65°36' E 022°12'0 0.0 160 / 41026.8 -10.9 0.8
2018-Jan-11 17:00N 65°36' E 022°12'0 0.0 200 / 61026.7 -10.1 0.8
2018-Jan-11 16:00N 65°36' E 022°12'0 0.0 240 / 21026.4 -9.4 0.7
2018-Jan-11 15:00N 65°36' E 022°12'0 0.0 130 / 41025.7 -9.4 0.6
2018-Jan-11 13:00N 65°36' E 022°12'0 0.0 270 1026.1 -10.4 0.7
2018-Jan-11 12:00N 65°36' E 022°12'0 0.0 310 / 21025.9 -10.3 0.7
2018-Jan-11 11:00N 65°36' E 022°12'0 0.0 310 / 21025.6 -11.3 0.6
2018-Jan-11 10:00N 65°36' E 022°12'0 0.0 300 / 41025.6 -11.6 0.6
2018-Jan-11 09:00N 65°36' E 022°12'0 0.0 310 / 41025.6 -11.4 0.6
2018-Jan-11 06:00N 65°36' E 022°12'0 0.0 310 / 21024.3 -12.0 0.7
2018-Jan-11 03:00N 65°36' E 022°12'0 0.0 330 / 41023.5 -11.8 0.7
2018-Jan-11 00:00N 65°36' E 022°12'0 0.0 1023.3 -11.9 0.7
2018-Jan-10 18:00N 65°36' E 022°12'0 0.0 320 / 21021.7 -10.6 0.9
2018-Jan-10 15:00N 65°36' E 022°12'0 0.0 340 / 21020.3 -8.9 0.8
2018-Jan-10 14:00N 65°36' E 022°12'0 0.0 330 / 81020.7 -9.0 0.7
2018-Jan-10 09:00N 65°36' E 022°12'0 0.0 330 / 41020.2 -7.6 0.7
2018-Jan-10 08:00N 65°36' E 022°12'0 0.0 330 / 61023.8 -6.8 0.7
2018-Jan-10 06:00N 65°36' E 022°12'0 0.0 340 / 61023.5 -5.7 0.8
2018-Jan-10 03:00N 65°36' E 022°12'0 0.0 320 / 41023.7 -5.7 0.8
2018-Jan-10 02:00N 65°36' E 022°12'0 0.0 320 / 41023.6 -4.2 0.8
2018-Jan-10 00:00N 65°36' E 022°12'0 0.0 260 / 41023.3 -4.1 0.8
2018-Jan-09 21:00N 65°36' E 022°12'0 0.0 010 / 41022.5 -4.4 0.9
2018-Jan-09 18:00N 65°36' E 022°12'0 0.0 340 / 81021.7 -3.6 0.9
2018-Jan-09 15:00N 65°36' E 022°12'0 0.0 330 / 41020.8 -4.2 0.9
2018-Jan-09 12:00N 65°36' E 022°12'0 0.0 140 / 21019.7 -3.5 0.8
2018-Jan-09 11:00N 65°36' E 022°12'0 0.0 200 / 21019.1 -2.9 0.8
2018-Jan-09 09:00N 65°36' E 022°12'0 0.0 190 / 41019.0 -4.2 0.8
2018-Jan-09 06:00N 65°36' E 022°12'0 0.0 110 / 61019.2 -3.9 0.9
2018-Jan-09 03:00N 65°36' E 022°12'0 0.0 170 / 41020.4 -4.5 1.0
2018-Jan-09 00:00N 65°36' E 022°12'0 0.0 310 / 41020.2 -4.8 1.1
2018-Jan-08 21:00N 65°36' E 022°12'0 0.0 290 / 41016.6 -8.1 1.2
2018-Jan-08 18:00N 65°36' E 022°12'   280 / 41015.4 -8.0 1.1

Dump ship's entire track history